sensor_id;sensor_type;location;lat;lon;timestamp;P1;durP1;ratioP1;P2;durP2;ratioP2
73642;SDS011;61938;48.652;9.292;2022-10-16T00:01:22;13.85;;;2.60;;
73642;SDS011;61938;48.652;9.292;2022-10-16T00:03:52;4.17;;;2.37;;
73642;SDS011;61938;48.652;9.292;2022-10-16T00:06:18;14.55;;;2.50;;
73642;SDS011;61938;48.652;9.292;2022-10-16T00:08:45;10.43;;;2.10;;
73642;SDS011;61938;48.652;9.292;2022-10-16T00:13:42;9.70;;;3.38;;
73642;SDS011;61938;48.652;9.292;2022-10-16T00:16:10;9.20;;;2.00;;
73642;SDS011;61938;48.652;9.292;2022-10-16T00:18:36;7.50;;;1.90;;
73642;SDS011;61938;48.652;9.292;2022-10-16T00:21:07;6.60;;;2.25;;
73642;SDS011;61938;48.652;9.292;2022-10-16T00:23:34;5.35;;;2.28;;
73642;SDS011;61938;48.652;9.292;2022-10-16T00:26:01;5.55;;;2.15;;
73642;SDS011;61938;48.652;9.292;2022-10-16T00:28:29;7.93;;;2.50;;
73642;SDS011;61938;48.652;9.292;2022-10-16T00:30:55;5.18;;;2.30;;
73642;SDS011;61938;48.652;9.292;2022-10-16T00:33:20;3.38;;;2.22;;
73642;SDS011;61938;48.652;9.292;2022-10-16T00:35:46;7.57;;;2.20;;
73642;SDS011;61938;48.652;9.292;2022-10-16T00:38:12;4.95;;;2.45;;
73642;SDS011;61938;48.652;9.292;2022-10-16T00:40:37;9.23;;;2.38;;
73642;SDS011;61938;48.652;9.292;2022-10-16T00:43:09;3.25;;;2.17;;
73642;SDS011;61938;48.652;9.292;2022-10-16T00:45:58;7.00;;;2.10;;
73642;SDS011;61938;48.652;9.292;2022-10-16T00:48:25;8.63;;;2.10;;
73642;SDS011;61938;48.652;9.292;2022-10-16T00:50:50;9.10;;;2.17;;
73642;SDS011;61938;48.652;9.292;2022-10-16T00:53:17;8.57;;;2.17;;
73642;SDS011;61938;48.652;9.292;2022-10-16T00:55:42;12.40;;;2.58;;
73642;SDS011;61938;48.652;9.292;2022-10-16T00:58:08;10.93;;;2.80;;
73642;SDS011;61938;48.652;9.292;2022-10-16T01:00:34;5.38;;;2.05;;
73642;SDS011;61938;48.652;9.292;2022-10-16T01:03:01;6.30;;;1.90;;
73642;SDS011;61938;48.652;9.292;2022-10-16T01:05:30;8.77;;;1.90;;
73642;SDS011;61938;48.652;9.292;2022-10-16T01:08:10;7.80;;;2.13;;
73642;SDS011;61938;48.652;9.292;2022-10-16T01:10:48;8.35;;;1.70;;
73642;SDS011;61938;48.652;9.292;2022-10-16T01:13:24;12.27;;;2.17;;
73642;SDS011;61938;48.652;9.292;2022-10-16T01:15:56;4.78;;;1.90;;
73642;SDS011;61938;48.652;9.292;2022-10-16T01:21:40;8.38;;;2.13;;
73642;SDS011;61938;48.652;9.292;2022-10-16T01:24:11;11.50;;;2.40;;
73642;SDS011;61938;48.652;9.292;2022-10-16T01:32:37;4.25;;;2.10;;
73642;SDS011;61938;48.652;9.292;2022-10-16T01:38:05;6.80;;;2.53;;
73642;SDS011;61938;48.652;9.292;2022-10-16T01:40:37;3.58;;;1.88;;
73642;SDS011;61938;48.652;9.292;2022-10-16T01:43:08;5.22;;;2.33;;
73642;SDS011;61938;48.652;9.292;2022-10-16T01:45:39;13.60;;;2.53;;
73642;SDS011;61938;48.652;9.292;2022-10-16T01:48:06;3.03;;;2.15;;
73642;SDS011;61938;48.652;9.292;2022-10-16T01:50:36;4.63;;;2.30;;
73642;SDS011;61938;48.652;9.292;2022-10-16T01:53:05;7.15;;;2.38;;
73642;SDS011;61938;48.652;9.292;2022-10-16T01:55:33;7.80;;;2.78;;
73642;SDS011;61938;48.652;9.292;2022-10-16T01:58:04;5.93;;;2.53;;
73642;SDS011;61938;48.652;9.292;2022-10-16T02:00:32;6.47;;;2.33;;
73642;SDS011;61938;48.652;9.292;2022-10-16T02:02:57;6.75;;;2.80;;
73642;SDS011;61938;48.652;9.292;2022-10-16T02:05:31;3.08;;;2.10;;
73642;SDS011;61938;48.652;9.292;2022-10-16T02:08:10;3.90;;;2.30;;
73642;SDS011;61938;48.652;9.292;2022-10-16T02:10:36;6.40;;;2.20;;
73642;SDS011;61938;48.652;9.292;2022-10-16T02:13:04;8.55;;;2.58;;
73642;SDS011;61938;48.652;9.292;2022-10-16T02:15:36;6.18;;;2.28;;
73642;SDS011;61938;48.652;9.292;2022-10-16T02:18:02;10.52;;;2.30;;
73642;SDS011;61938;48.652;9.292;2022-10-16T02:20:31;5.57;;;2.25;;
73642;SDS011;61938;48.652;9.292;2022-10-16T02:23:01;4.82;;;2.20;;
73642;SDS011;61938;48.652;9.292;2022-10-16T02:25:32;8.35;;;2.33;;
73642;SDS011;61938;48.652;9.292;2022-10-16T02:28:02;10.38;;;2.40;;
73642;SDS011;61938;48.652;9.292;2022-10-16T02:30:44;9.45;;;2.58;;
73642;SDS011;61938;48.652;9.292;2022-10-16T02:33:11;8.38;;;2.33;;
73642;SDS011;61938;48.652;9.292;2022-10-16T02:35:39;4.13;;;2.10;;
73642;SDS011;61938;48.652;9.292;2022-10-16T02:38:06;14.77;;;2.60;;
73642;SDS011;61938;48.652;9.292;2022-10-16T02:40:33;6.03;;;2.50;;
73642;SDS011;61938;48.652;9.292;2022-10-16T02:42:59;7.85;;;2.47;;
73642;SDS011;61938;48.652;9.292;2022-10-16T02:45:25;8.02;;;2.17;;
73642;SDS011;61938;48.652;9.292;2022-10-16T02:47:51;8.50;;;2.30;;
73642;SDS011;61938;48.652;9.292;2022-10-16T02:50:16;7.22;;;2.83;;
73642;SDS011;61938;48.652;9.292;2022-10-16T02:52:42;12.13;;;2.50;;
73642;SDS011;61938;48.652;9.292;2022-10-16T02:55:08;13.23;;;2.65;;
73642;SDS011;61938;48.652;9.292;2022-10-16T02:57:34;14.02;;;3.17;;
73642;SDS011;61938;48.652;9.292;2022-10-16T03:00:02;10.05;;;2.92;;
73642;SDS011;61938;48.652;9.292;2022-10-16T03:02:31;9.48;;;3.20;;
73642;SDS011;61938;48.652;9.292;2022-10-16T03:04:56;7.78;;;2.90;;
73642;SDS011;61938;48.652;9.292;2022-10-16T03:07:22;8.82;;;2.53;;
73642;SDS011;61938;48.652;9.292;2022-10-16T03:09:47;5.93;;;3.05;;
73642;SDS011;61938;48.652;9.292;2022-10-16T03:12:13;10.75;;;3.10;;
73642;SDS011;61938;48.652;9.292;2022-10-16T03:14:38;7.50;;;3.08;;
73642;SDS011;61938;48.652;9.292;2022-10-16T03:17:05;13.23;;;2.88;;
73642;SDS011;61938;48.652;9.292;2022-10-16T03:19:30;5.30;;;3.28;;
73642;SDS011;61938;48.652;9.292;2022-10-16T03:21:56;6.10;;;3.40;;
73642;SDS011;61938;48.652;9.292;2022-10-16T03:24:22;9.23;;;3.25;;
73642;SDS011;61938;48.652;9.292;2022-10-16T03:26:47;5.18;;;2.65;;
73642;SDS011;61938;48.652;9.292;2022-10-16T03:29:13;6.65;;;2.90;;
73642;SDS011;61938;48.652;9.292;2022-10-16T03:31:38;4.72;;;3.17;;
73642;SDS011;61938;48.652;9.292;2022-10-16T03:34:04;5.35;;;3.17;;
73642;SDS011;61938;48.652;9.292;2022-10-16T03:36:29;9.07;;;3.38;;
73642;SDS011;61938;48.652;9.292;2022-10-16T03:38:55;5.35;;;3.20;;
73642;SDS011;61938;48.652;9.292;2022-10-16T03:41:20;9.40;;;3.00;;
73642;SDS011;61938;48.652;9.292;2022-10-16T03:43:46;7.35;;;3.88;;
73642;SDS011;61938;48.652;9.292;2022-10-16T03:46:11;9.30;;;2.53;;
73642;SDS011;61938;48.652;9.292;2022-10-16T03:48:37;5.60;;;3.08;;
73642;SDS011;61938;48.652;9.292;2022-10-16T03:51:02;4.38;;;2.85;;
73642;SDS011;61938;48.652;9.292;2022-10-16T03:53:28;6.00;;;3.20;;
73642;SDS011;61938;48.652;9.292;2022-10-16T03:55:54;5.07;;;3.03;;
73642;SDS011;61938;48.652;9.292;2022-10-16T03:58:19;13.48;;;3.05;;
73642;SDS011;61938;48.652;9.292;2022-10-16T04:00:45;9.20;;;3.28;;
73642;SDS011;61938;48.652;9.292;2022-10-16T04:03:12;10.30;;;3.10;;
73642;SDS011;61938;48.652;9.292;2022-10-16T04:05:38;7.50;;;2.83;;
73642;SDS011;61938;48.652;9.292;2022-10-16T04:08:04;6.57;;;3.17;;
73642;SDS011;61938;48.652;9.292;2022-10-16T04:10:30;9.02;;;2.95;;
73642;SDS011;61938;48.652;9.292;2022-10-16T04:12:56;8.73;;;2.80;;
73642;SDS011;61938;48.652;9.292;2022-10-16T04:15:22;7.75;;;2.70;;
73642;SDS011;61938;48.652;9.292;2022-10-16T04:17:49;4.63;;;3.00;;
73642;SDS011;61938;48.652;9.292;2022-10-16T04:20:15;10.23;;;3.97;;
73642;SDS011;61938;48.652;9.292;2022-10-16T04:22:41;4.70;;;3.17;;
73642;SDS011;61938;48.652;9.292;2022-10-16T04:25:06;7.93;;;2.97;;
73642;SDS011;61938;48.652;9.292;2022-10-16T04:27:32;7.70;;;2.67;;
73642;SDS011;61938;48.652;9.292;2022-10-16T04:29:58;7.13;;;2.83;;
73642;SDS011;61938;48.652;9.292;2022-10-16T04:32:24;8.38;;;2.80;;
73642;SDS011;61938;48.652;9.292;2022-10-16T04:34:50;5.72;;;3.10;;
73642;SDS011;61938;48.652;9.292;2022-10-16T04:37:15;5.00;;;2.88;;
73642;SDS011;61938;48.652;9.292;2022-10-16T04:39:41;6.05;;;2.90;;
73642;SDS011;61938;48.652;9.292;2022-10-16T04:42:07;7.53;;;2.90;;
73642;SDS011;61938;48.652;9.292;2022-10-16T04:44:32;13.63;;;2.72;;
73642;SDS011;61938;48.652;9.292;2022-10-16T04:46:58;11.30;;;2.97;;
73642;SDS011;61938;48.652;9.292;2022-10-16T04:49:23;5.03;;;2.63;;
73642;SDS011;61938;48.652;9.292;2022-10-16T04:51:49;12.63;;;3.05;;
73642;SDS011;61938;48.652;9.292;2022-10-16T04:54:14;5.25;;;3.05;;
73642;SDS011;61938;48.652;9.292;2022-10-16T04:56:40;11.27;;;2.70;;
73642;SDS011;61938;48.652;9.292;2022-10-16T04:59:08;5.22;;;2.42;;
73642;SDS011;61938;48.652;9.292;2022-10-16T05:01:34;6.70;;;2.80;;
73642;SDS011;61938;48.652;9.292;2022-10-16T05:04:00;9.00;;;3.03;;
73642;SDS011;61938;48.652;9.292;2022-10-16T05:06:26;3.33;;;2.40;;
73642;SDS011;61938;48.652;9.292;2022-10-16T05:08:51;4.85;;;2.85;;
73642;SDS011;61938;48.652;9.292;2022-10-16T05:11:17;5.45;;;2.72;;
73642;SDS011;61938;48.652;9.292;2022-10-16T05:13:42;7.03;;;2.65;;
73642;SDS011;61938;48.652;9.292;2022-10-16T05:16:08;5.40;;;3.10;;
73642;SDS011;61938;48.652;9.292;2022-10-16T05:18:34;7.00;;;2.72;;
73642;SDS011;61938;48.652;9.292;2022-10-16T05:20:59;7.10;;;3.15;;
73642;SDS011;61938;48.652;9.292;2022-10-16T05:23:25;5.10;;;3.42;;
73642;SDS011;61938;48.652;9.292;2022-10-16T05:25:54;5.60;;;3.80;;
73642;SDS011;61938;48.652;9.292;2022-10-16T05:28:23;14.63;;;4.40;;
73642;SDS011;61938;48.652;9.292;2022-10-16T05:30:52;6.93;;;3.85;;
73642;SDS011;61938;48.652;9.292;2022-10-16T05:33:22;6.35;;;3.22;;
73642;SDS011;61938;48.652;9.292;2022-10-16T05:35:49;7.68;;;2.85;;
73642;SDS011;61938;48.652;9.292;2022-10-16T05:38:15;8.90;;;2.33;;
73642;SDS011;61938;48.652;9.292;2022-10-16T05:40:50;4.25;;;2.30;;
73642;SDS011;61938;48.652;9.292;2022-10-16T05:43:17;4.38;;;2.80;;
73642;SDS011;61938;48.652;9.292;2022-10-16T05:45:43;5.43;;;2.75;;
73642;SDS011;61938;48.652;9.292;2022-10-16T05:48:08;8.77;;;2.40;;
73642;SDS011;61938;48.652;9.292;2022-10-16T05:50:34;8.38;;;2.65;;
73642;SDS011;61938;48.652;9.292;2022-10-16T05:52:59;6.65;;;2.45;;
73642;SDS011;61938;48.652;9.292;2022-10-16T05:55:25;14.55;;;2.50;;
73642;SDS011;61938;48.652;9.292;2022-10-16T05:57:53;9.32;;;2.67;;
73642;SDS011;61938;48.652;9.292;2022-10-16T06:00:19;11.13;;;2.75;;
73642;SDS011;61938;48.652;9.292;2022-10-16T06:02:45;27.33;;;3.05;;
73642;SDS011;61938;48.652;9.292;2022-10-16T06:05:10;4.03;;;2.42;;
73642;SDS011;61938;48.652;9.292;2022-10-16T06:07:36;6.53;;;3.20;;
73642;SDS011;61938;48.652;9.292;2022-10-16T06:10:02;7.00;;;3.28;;
73642;SDS011;61938;48.652;9.292;2022-10-16T06:12:29;4.97;;;2.88;;
73642;SDS011;61938;48.652;9.292;2022-10-16T06:14:54;7.32;;;2.90;;
73642;SDS011;61938;48.652;9.292;2022-10-16T06:17:20;8.10;;;2.75;;
73642;SDS011;61938;48.652;9.292;2022-10-16T06:19:45;8.95;;;3.08;;
73642;SDS011;61938;48.652;9.292;2022-10-16T06:22:11;12.20;;;3.47;;
73642;SDS011;61938;48.652;9.292;2022-10-16T06:24:37;6.28;;;3.03;;
73642;SDS011;61938;48.652;9.292;2022-10-16T06:27:03;4.90;;;2.70;;
73642;SDS011;61938;48.652;9.292;2022-10-16T06:29:29;5.70;;;3.15;;
73642;SDS011;61938;48.652;9.292;2022-10-16T06:31:54;7.43;;;3.25;;
73642;SDS011;61938;48.652;9.292;2022-10-16T06:34:20;6.97;;;3.00;;
73642;SDS011;61938;48.652;9.292;2022-10-16T06:36:45;11.77;;;2.78;;
73642;SDS011;61938;48.652;9.292;2022-10-16T06:39:11;6.93;;;2.72;;
73642;SDS011;61938;48.652;9.292;2022-10-16T06:41:36;4.93;;;2.72;;
73642;SDS011;61938;48.652;9.292;2022-10-16T06:44:06;8.52;;;2.30;;
73642;SDS011;61938;48.652;9.292;2022-10-16T06:46:32;9.35;;;2.42;;
73642;SDS011;61938;48.652;9.292;2022-10-16T06:48:58;3.85;;;2.40;;
73642;SDS011;61938;48.652;9.292;2022-10-16T06:51:24;6.82;;;2.10;;
73642;SDS011;61938;48.652;9.292;2022-10-16T06:53:51;5.50;;;2.05;;
73642;SDS011;61938;48.652;9.292;2022-10-16T06:56:22;6.22;;;2.08;;
73642;SDS011;61938;48.652;9.292;2022-10-16T06:58:49;2.78;;;1.92;;
73642;SDS011;61938;48.652;9.292;2022-10-16T07:01:16;8.70;;;2.30;;
73642;SDS011;61938;48.652;9.292;2022-10-16T07:03:44;3.83;;;2.20;;
73642;SDS011;61938;48.652;9.292;2022-10-16T07:06:13;13.50;;;3.03;;
73642;SDS011;61938;48.652;9.292;2022-10-16T07:08:41;7.57;;;2.00;;
73642;SDS011;61938;48.652;9.292;2022-10-16T07:11:12;9.05;;;2.13;;
73642;SDS011;61938;48.652;9.292;2022-10-16T07:13:40;4.97;;;1.70;;
73642;SDS011;61938;48.652;9.292;2022-10-16T07:16:11;9.93;;;2.53;;
73642;SDS011;61938;48.652;9.292;2022-10-16T07:18:38;7.40;;;2.03;;
73642;SDS011;61938;48.652;9.292;2022-10-16T07:21:05;6.75;;;1.80;;
73642;SDS011;61938;48.652;9.292;2022-10-16T07:23:32;9.02;;;2.00;;
73642;SDS011;61938;48.652;9.292;2022-10-16T07:25:58;3.42;;;1.98;;
73642;SDS011;61938;48.652;9.292;2022-10-16T07:28:23;3.10;;;2.20;;
73642;SDS011;61938;48.652;9.292;2022-10-16T07:30:49;11.05;;;2.70;;
73642;SDS011;61938;48.652;9.292;2022-10-16T07:33:14;12.63;;;2.53;;
73642;SDS011;61938;48.652;9.292;2022-10-16T07:35:50;12.57;;;2.25;;
73642;SDS011;61938;48.652;9.292;2022-10-16T07:38:17;9.48;;;3.05;;
73642;SDS011;61938;48.652;9.292;2022-10-16T07:40:42;5.50;;;2.70;;
73642;SDS011;61938;48.652;9.292;2022-10-16T07:43:08;16.60;;;3.35;;
73642;SDS011;61938;48.652;9.292;2022-10-16T07:45:33;5.10;;;2.90;;
73642;SDS011;61938;48.652;9.292;2022-10-16T07:47:59;7.15;;;2.40;;
73642;SDS011;61938;48.652;9.292;2022-10-16T07:50:24;15.80;;;3.42;;
73642;SDS011;61938;48.652;9.292;2022-10-16T07:52:50;6.25;;;3.13;;
73642;SDS011;61938;48.652;9.292;2022-10-16T07:55:15;9.82;;;3.17;;
73642;SDS011;61938;48.652;9.292;2022-10-16T07:57:41;6.95;;;3.53;;
73642;SDS011;61938;48.652;9.292;2022-10-16T08:00:07;6.57;;;2.83;;
73642;SDS011;61938;48.652;9.292;2022-10-16T08:02:38;7.93;;;2.97;;
73642;SDS011;61938;48.652;9.292;2022-10-16T08:05:04;9.00;;;2.40;;
73642;SDS011;61938;48.652;9.292;2022-10-16T08:07:30;3.70;;;1.95;;
73642;SDS011;61938;48.652;9.292;2022-10-16T08:09:56;12.30;;;2.75;;
73642;SDS011;61938;48.652;9.292;2022-10-16T08:12:23;5.57;;;2.10;;
73642;SDS011;61938;48.652;9.292;2022-10-16T08:14:48;7.38;;;2.03;;
73642;SDS011;61938;48.652;9.292;2022-10-16T08:17:14;8.85;;;2.03;;
73642;SDS011;61938;48.652;9.292;2022-10-16T08:19:43;8.57;;;2.20;;
73642;SDS011;61938;48.652;9.292;2022-10-16T08:22:10;4.60;;;2.25;;
73642;SDS011;61938;48.652;9.292;2022-10-16T08:24:35;7.20;;;2.30;;
73642;SDS011;61938;48.652;9.292;2022-10-16T08:27:01;3.58;;;2.22;;
73642;SDS011;61938;48.652;9.292;2022-10-16T08:29:27;7.15;;;2.22;;
73642;SDS011;61938;48.652;9.292;2022-10-16T08:31:53;11.18;;;2.40;;
73642;SDS011;61938;48.652;9.292;2022-10-16T08:34:18;6.53;;;2.70;;
73642;SDS011;61938;48.652;9.292;2022-10-16T08:36:44;7.10;;;2.53;;
73642;SDS011;61938;48.652;9.292;2022-10-16T08:39:09;6.80;;;2.05;;
73642;SDS011;61938;48.652;9.292;2022-10-16T08:44:53;11.55;;;2.33;;
73642;SDS011;61938;48.652;9.292;2022-10-16T08:47:46;4.10;;;2.45;;
73642;SDS011;61938;48.652;9.292;2022-10-16T08:50:30;2.92;;;1.95;;
73642;SDS011;61938;48.652;9.292;2022-10-16T08:52:57;3.97;;;2.40;;
73642;SDS011;61938;48.652;9.292;2022-10-16T08:55:37;8.93;;;1.90;;
73642;SDS011;61938;48.652;9.292;2022-10-16T08:58:22;3.45;;;2.10;;
73642;SDS011;61938;48.652;9.292;2022-10-16T09:00:55;7.50;;;2.08;;
73642;SDS011;61938;48.652;9.292;2022-10-16T09:07:04;12.05;;;1.92;;
73642;SDS011;61938;48.652;9.292;2022-10-16T09:12:17;4.05;;;2.35;;
73642;SDS011;61938;48.652;9.292;2022-10-16T09:14:49;3.40;;;1.88;;
73642;SDS011;61938;48.652;9.292;2022-10-16T09:20:24;13.30;;;2.47;;
73642;SDS011;61938;48.652;9.292;2022-10-16T09:23:27;10.57;;;1.70;;
73642;SDS011;61938;48.652;9.292;2022-10-16T09:25:55;13.30;;;2.60;;
73642;SDS011;61938;48.652;9.292;2022-10-16T09:28:22;8.40;;;2.03;;
73642;SDS011;61938;48.652;9.292;2022-10-16T09:30:48;5.05;;;1.88;;
73642;SDS011;61938;48.652;9.292;2022-10-16T09:33:14;8.25;;;2.03;;
73642;SDS011;61938;48.652;9.292;2022-10-16T09:35:43;9.48;;;2.17;;
73642;SDS011;61938;48.652;9.292;2022-10-16T09:38:24;9.77;;;2.10;;
73642;SDS011;61938;48.652;9.292;2022-10-16T09:40:52;1.80;;;1.58;;
73642;SDS011;61938;48.652;9.292;2022-10-16T09:43:23;5.47;;;1.55;;
73642;SDS011;61938;48.652;9.292;2022-10-16T09:45:57;6.20;;;1.55;;
73642;SDS011;61938;48.652;9.292;2022-10-16T09:48:30;7.88;;;2.92;;
73642;SDS011;61938;48.652;9.292;2022-10-16T09:51:01;3.80;;;2.10;;
73642;SDS011;61938;48.652;9.292;2022-10-16T09:53:41;12.77;;;2.00;;
73642;SDS011;61938;48.652;9.292;2022-10-16T09:56:20;3.53;;;1.63;;
73642;SDS011;61938;48.652;9.292;2022-10-16T09:58:51;8.63;;;1.90;;
73642;SDS011;61938;48.652;9.292;2022-10-16T10:01:18;4.53;;;1.50;;
73642;SDS011;61938;48.652;9.292;2022-10-16T10:03:45;3.50;;;2.10;;
73642;SDS011;61938;48.652;9.292;2022-10-16T10:06:25;6.97;;;2.00;;
73642;SDS011;61938;48.652;9.292;2022-10-16T10:08:56;2.45;;;1.50;;
73642;SDS011;61938;48.652;9.292;2022-10-16T10:14:15;4.60;;;1.60;;
73642;SDS011;61938;48.652;9.292;2022-10-16T10:16:44;17.02;;;2.17;;
73642;SDS011;61938;48.652;9.292;2022-10-16T10:19:20;8.48;;;1.92;;
73642;SDS011;61938;48.652;9.292;2022-10-16T10:21:49;5.95;;;1.88;;
73642;SDS011;61938;48.652;9.292;2022-10-16T10:24:17;4.68;;;2.08;;
73642;SDS011;61938;48.652;9.292;2022-10-16T10:26:52;3.22;;;1.60;;
73642;SDS011;61938;48.652;9.292;2022-10-16T10:29:33;6.35;;;1.70;;
73642;SDS011;61938;48.652;9.292;2022-10-16T10:32:27;6.80;;;1.50;;
73642;SDS011;61938;48.652;9.292;2022-10-16T10:35:13;7.45;;;1.63;;
73642;SDS011;61938;48.652;9.292;2022-10-16T10:40:34;5.30;;;1.67;;
73642;SDS011;61938;48.652;9.292;2022-10-16T10:45:47;4.78;;;1.52;;
73642;SDS011;61938;48.652;9.292;2022-10-16T10:51:13;3.97;;;1.48;;
73642;SDS011;61938;48.652;9.292;2022-10-16T10:53:52;8.88;;;1.40;;
73642;SDS011;61938;48.652;9.292;2022-10-16T10:59:18;7.72;;;1.55;;
73642;SDS011;61938;48.652;9.292;2022-10-16T11:04:47;7.35;;;1.70;;
73642;SDS011;61938;48.652;9.292;2022-10-16T11:07:28;4.30;;;1.55;;
73642;SDS011;61938;48.652;9.292;2022-10-16T11:09:59;2.08;;;1.35;;
73642;SDS011;61938;48.652;9.292;2022-10-16T11:12:32;5.00;;;1.40;;
73642;SDS011;61938;48.652;9.292;2022-10-16T11:15:10;4.05;;;1.33;;
73642;SDS011;61938;48.652;9.292;2022-10-16T11:22:55;2.78;;;1.55;;
73642;SDS011;61938;48.652;9.292;2022-10-16T11:25:37;5.38;;;1.58;;
73642;SDS011;61938;48.652;9.292;2022-10-16T11:28:09;5.93;;;1.80;;
73642;SDS011;61938;48.652;9.292;2022-10-16T11:33:39;5.40;;;1.40;;
73642;SDS011;61938;48.652;9.292;2022-10-16T11:36:19;5.43;;;1.25;;
73642;SDS011;61938;48.652;9.292;2022-10-16T11:38:59;2.72;;;1.38;;
73642;SDS011;61938;48.652;9.292;2022-10-16T11:42:18;2.03;;;1.33;;
73642;SDS011;61938;48.652;9.292;2022-10-16T11:44:52;4.63;;;1.52;;
73642;SDS011;61938;48.652;9.292;2022-10-16T11:50:23;2.67;;;1.40;;
73642;SDS011;61938;48.652;9.292;2022-10-16T11:55:52;3.05;;;1.60;;
73642;SDS011;61938;48.652;9.292;2022-10-16T11:58:28;3.45;;;1.38;;
73642;SDS011;61938;48.652;9.292;2022-10-16T12:03:35;4.18;;;1.48;;
73642;SDS011;61938;48.652;9.292;2022-10-16T12:06:34;6.70;;;1.27;;
73642;SDS011;61938;48.652;9.292;2022-10-16T12:09:05;2.38;;;1.77;;
73642;SDS011;61938;48.652;9.292;2022-10-16T12:11:44;8.45;;;1.75;;
73642;SDS011;61938;48.652;9.292;2022-10-16T12:16:37;2.40;;;1.30;;
73642;SDS011;61938;48.652;9.292;2022-10-16T12:19:14;8.57;;;1.60;;
73642;SDS011;61938;48.652;9.292;2022-10-16T12:21:41;8.68;;;1.88;;
73642;SDS011;61938;48.652;9.292;2022-10-16T12:29:59;6.07;;;1.30;;
73642;SDS011;61938;48.652;9.292;2022-10-16T12:32:31;8.18;;;1.45;;
73642;SDS011;61938;48.652;9.292;2022-10-16T12:34:59;2.38;;;1.20;;
73642;SDS011;61938;48.652;9.292;2022-10-16T12:37:34;3.35;;;1.55;;
73642;SDS011;61938;48.652;9.292;2022-10-16T12:40:15;7.40;;;1.50;;
73642;SDS011;61938;48.652;9.292;2022-10-16T12:42:50;3.75;;;1.30;;
73642;SDS011;61938;48.652;9.292;2022-10-16T12:45:29;3.40;;;1.55;;
73642;SDS011;61938;48.652;9.292;2022-10-16T12:47:56;3.92;;;2.05;;
73642;SDS011;61938;48.652;9.292;2022-10-16T12:50:28;4.70;;;1.75;;
73642;SDS011;61938;48.652;9.292;2022-10-16T12:52:57;1.98;;;1.33;;
73642;SDS011;61938;48.652;9.292;2022-10-16T12:55:23;3.47;;;1.60;;
73642;SDS011;61938;48.652;9.292;2022-10-16T13:00:53;2.60;;;1.33;;
73642;SDS011;61938;48.652;9.292;2022-10-16T13:03:37;5.47;;;1.60;;
73642;SDS011;61938;48.652;9.292;2022-10-16T13:06:08;3.40;;;1.30;;
73642;SDS011;61938;48.652;9.292;2022-10-16T13:08:57;7.90;;;1.63;;
73642;SDS011;61938;48.652;9.292;2022-10-16T13:11:55;7.72;;;1.55;;
73642;SDS011;61938;48.652;9.292;2022-10-16T13:20:49;3.47;;;1.50;;
73642;SDS011;61938;48.652;9.292;2022-10-16T13:23:29;4.63;;;1.40;;
73642;SDS011;61938;48.652;9.292;2022-10-16T13:26:05;3.50;;;1.73;;
73642;SDS011;61938;48.652;9.292;2022-10-16T13:28:45;6.63;;;1.60;;
73642;SDS011;61938;48.652;9.292;2022-10-16T13:31:23;5.45;;;1.70;;
73642;SDS011;61938;48.652;9.292;2022-10-16T13:33:50;3.58;;;1.42;;
73642;SDS011;61938;48.652;9.292;2022-10-16T13:36:22;3.22;;;1.45;;
73642;SDS011;61938;48.652;9.292;2022-10-16T13:41:38;3.35;;;1.48;;
73642;SDS011;61938;48.652;9.292;2022-10-16T13:44:11;2.83;;;1.45;;
73642;SDS011;61938;48.652;9.292;2022-10-16T13:46:40;8.55;;;1.60;;
73642;SDS011;61938;48.652;9.292;2022-10-16T13:49:11;5.53;;;1.55;;
73642;SDS011;61938;48.652;9.292;2022-10-16T13:51:53;4.75;;;1.42;;
73642;SDS011;61938;48.652;9.292;2022-10-16T13:54:23;5.57;;;1.70;;
73642;SDS011;61938;48.652;9.292;2022-10-16T13:56:50;6.47;;;1.63;;
73642;SDS011;61938;48.652;9.292;2022-10-16T13:59:22;8.40;;;1.77;;
73642;SDS011;61938;48.652;9.292;2022-10-16T14:01:50;2.45;;;1.20;;
73642;SDS011;61938;48.652;9.292;2022-10-16T14:04:19;5.75;;;1.83;;
73642;SDS011;61938;48.652;9.292;2022-10-16T14:06:45;3.30;;;1.50;;
73642;SDS011;61938;48.652;9.292;2022-10-16T14:09:24;2.40;;;1.65;;
73642;SDS011;61938;48.652;9.292;2022-10-16T14:12:02;6.82;;;1.63;;
73642;SDS011;61938;48.652;9.292;2022-10-16T14:14:46;5.03;;;1.63;;
73642;SDS011;61938;48.652;9.292;2022-10-16T14:17:27;2.58;;;1.75;;
73642;SDS011;61938;48.652;9.292;2022-10-16T14:24:51;3.90;;;1.58;;
73642;SDS011;61938;48.652;9.292;2022-10-16T14:30:18;2.72;;;1.60;;
73642;SDS011;61938;48.652;9.292;2022-10-16T14:32:53;2.97;;;1.80;;
73642;SDS011;61938;48.652;9.292;2022-10-16T14:35:24;2.17;;;1.33;;
73642;SDS011;61938;48.652;9.292;2022-10-16T14:38:01;4.43;;;1.60;;
73642;SDS011;61938;48.652;9.292;2022-10-16T14:40:32;3.30;;;1.40;;
73642;SDS011;61938;48.652;9.292;2022-10-16T14:43:00;2.42;;;1.50;;
73642;SDS011;61938;48.652;9.292;2022-10-16T14:45:28;2.10;;;1.50;;
73642;SDS011;61938;48.652;9.292;2022-10-16T14:47:56;4.03;;;2.00;;
73642;SDS011;61938;48.652;9.292;2022-10-16T14:50:24;3.58;;;1.80;;
73642;SDS011;61938;48.652;9.292;2022-10-16T14:52:49;6.97;;;2.03;;
73642;SDS011;61938;48.652;9.292;2022-10-16T14:55:15;7.63;;;2.08;;
73642;SDS011;61938;48.652;9.292;2022-10-16T14:57:42;9.27;;;3.10;;
73642;SDS011;61938;48.652;9.292;2022-10-16T15:00:13;8.18;;;3.20;;
73642;SDS011;61938;48.652;9.292;2022-10-16T15:02:45;8.45;;;2.85;;
73642;SDS011;61938;48.652;9.292;2022-10-16T15:05:19;8.60;;;2.28;;
73642;SDS011;61938;48.652;9.292;2022-10-16T15:07:47;5.70;;;2.20;;
73642;SDS011;61938;48.652;9.292;2022-10-16T15:10:14;3.28;;;1.73;;
73642;SDS011;61938;48.652;9.292;2022-10-16T15:12:44;4.78;;;1.95;;
73642;SDS011;61938;48.652;9.292;2022-10-16T15:15:15;2.75;;;1.58;;
73642;SDS011;61938;48.652;9.292;2022-10-16T15:18:00;3.25;;;1.52;;
73642;SDS011;61938;48.652;9.292;2022-10-16T15:20:27;3.00;;;1.70;;
73642;SDS011;61938;48.652;9.292;2022-10-16T15:23:01;2.78;;;1.33;;
73642;SDS011;61938;48.652;9.292;2022-10-16T15:25:36;2.67;;;1.50;;
73642;SDS011;61938;48.652;9.292;2022-10-16T15:28:07;4.38;;;1.45;;
73642;SDS011;61938;48.652;9.292;2022-10-16T15:30:33;4.00;;;1.80;;
73642;SDS011;61938;48.652;9.292;2022-10-16T15:33:00;10.63;;;1.75;;
73642;SDS011;61938;48.652;9.292;2022-10-16T15:35:27;7.88;;;2.28;;
73642;SDS011;61938;48.652;9.292;2022-10-16T15:37:53;9.88;;;2.42;;
73642;SDS011;61938;48.652;9.292;2022-10-16T15:40:19;5.10;;;2.53;;
73642;SDS011;61938;48.652;9.292;2022-10-16T15:42:45;5.82;;;2.70;;
73642;SDS011;61938;48.652;9.292;2022-10-16T15:45:11;8.68;;;3.03;;
73642;SDS011;61938;48.652;9.292;2022-10-16T15:47:38;5.75;;;2.60;;
73642;SDS011;61938;48.652;9.292;2022-10-16T15:50:05;5.80;;;3.10;;
73642;SDS011;61938;48.652;9.292;2022-10-16T15:52:31;24.75;;;5.57;;
73642;SDS011;61938;48.652;9.292;2022-10-16T15:54:57;5.88;;;2.63;;
73642;SDS011;61938;48.652;9.292;2022-10-16T15:57:23;5.05;;;2.53;;
73642;SDS011;61938;48.652;9.292;2022-10-16T15:59:49;6.75;;;2.30;;
73642;SDS011;61938;48.652;9.292;2022-10-16T16:02:15;4.43;;;2.20;;
73642;SDS011;61938;48.652;9.292;2022-10-16T16:04:40;14.00;;;2.75;;
73642;SDS011;61938;48.652;9.292;2022-10-16T16:07:06;5.93;;;2.30;;
73642;SDS011;61938;48.652;9.292;2022-10-16T16:09:35;4.05;;;2.25;;
73642;SDS011;61938;48.652;9.292;2022-10-16T16:12:00;5.68;;;2.28;;
73642;SDS011;61938;48.652;9.292;2022-10-16T16:14:26;9.77;;;2.85;;
73642;SDS011;61938;48.652;9.292;2022-10-16T16:16:55;10.45;;;2.42;;
73642;SDS011;61938;48.652;9.292;2022-10-16T16:19:22;17.38;;;3.13;;
73642;SDS011;61938;48.652;9.292;2022-10-16T16:21:48;4.57;;;2.85;;
73642;SDS011;61938;48.652;9.292;2022-10-16T16:24:14;7.32;;;3.30;;
73642;SDS011;61938;48.652;9.292;2022-10-16T16:26:39;5.30;;;3.60;;
73642;SDS011;61938;48.652;9.292;2022-10-16T16:29:08;8.50;;;4.03;;